Time;durP1;ratioP1;P1;durP2;ratioP2;P2;SDS_P1;SDS_P2;PMS_P1;PMS_P2;Temp;Humidity;BMP_temperature;BMP_pressure;BME280_temperature;BME280_humidity;BME280_pressure;Samples;Min_cycle;Max_cycle;Signal;HPM_P1;HPM_P2
2022/06/06 00:00:11;;;;;;;7.30;4.38;;;21.30;61.10;;;;;;7363809;19;20043;-75
2022/06/06 00:02:41;;;;;;;5.57;3.92;;;21.30;60.50;;;;;;7367444;19;20305;-76
2022/06/06 00:05:16;;;;;;;9.60;4.70;;;21.30;60.20;;;;;;7369941;19;20018;-76
2022/06/06 00:07:46;;;;;;;6.38;3.60;;;21.30;60.20;;;;;;7390869;19;20022;-76
2022/06/06 00:10:16;;;;;;;12.37;3.93;;;21.30;59.50;;;;;;7369367;19;20025;-76
2022/06/06 00:12:46;;;;;;;5.18;3.63;;;21.30;59.20;;;;;;7370888;19;20031;-77
2022/06/06 00:15:17;;;;;;;11.77;3.90;;;21.20;59.30;;;;;;7363042;19;20014;-75
2022/06/06 00:17:46;;;;;;;9.70;4.00;;;21.20;59.40;;;;;;7368672;19;20103;-75
2022/06/06 00:20:19;;;;;;;8.85;3.95;;;21.20;59.40;;;;;;7366338;19;20724;-75
2022/06/06 00:22:49;;;;;;;5.60;3.33;;;21.10;59.40;;;;;;7391071;19;20082;-75
2022/06/06 00:25:22;;;;;;;7.85;3.47;;;21.10;59.30;;;;;;7368151;19;20007;-76
2022/06/06 00:27:51;;;;;;;5.97;3.65;;;21.00;59.30;;;;;;7369551;19;20021;-76
2022/06/06 00:30:23;;;;;;;8.27;3.70;;;21.00;59.50;;;;;;7363264;19;20018;-75
2022/06/06 00:35:37;;;;;;;6.87;3.80;;;21.00;59.80;;;;;;7367200;19;20051;-76
2022/06/06 00:38:07;;;;;;;8.18;3.08;;;21.00;59.70;;;;;;7372403;19;20276;-75
2022/06/06 00:40:38;;;;;;;6.30;3.30;;;21.00;59.60;;;;;;7388377;19;20026;-78
2022/06/06 00:43:07;;;;;;;8.57;3.15;;;21.00;59.40;;;;;;7367975;19;20021;-76
2022/06/06 00:45:38;;;;;;;7.82;2.95;;;20.90;59.30;;;;;;7367069;19;20032;-77
2022/06/06 00:48:22;;;;;;;5.18;2.78;;;20.90;59.30;;;;;;7369648;19;20017;-75
2022/06/06 00:51:01;;;;;;;4.90;2.40;;;20.80;59.50;;;;;;7364903;19;20042;-75
2022/06/06 00:53:36;;;;;;;3.72;2.47;;;20.70;59.40;;;;;;7367976;19;20057;-76
2022/06/06 00:56:15;;;;;;;5.53;2.50;;;20.70;59.20;;;;;;7369712;19;20093;-76
2022/06/06 00:58:46;;;;;;;5.20;2.53;;;20.70;59.20;;;;;;7385792;19;20015;-76
2022/06/06 01:01:17;;;;;;;6.85;2.33;;;20.70;59.30;;;;;;7370608;19;20081;-76
2022/06/06 01:03:47;;;;;;;4.15;2.28;;;20.70;59.40;;;;;;7369077;19;20010;-76
2022/06/06 01:06:22;;;;;;;4.85;1.95;;;20.70;59.40;;;;;;7370210;19;20633;-76
2022/06/06 01:08:54;;;;;;;3.08;2.40;;;20.70;59.20;;;;;;7369901;19;20183;-76
2022/06/06 01:11:24;;;;;;;6.10;2.33;;;20.80;59.00;;;;;;7367853;19;20006;-76
2022/06/06 01:13:56;;;;;;;6.43;2.80;;;20.70;59.00;;;;;;7389575;19;20052;-75
2022/06/06 01:16:43;;;;;;;4.65;2.40;;;20.70;59.10;;;;;;7370494;19;20863;-76
2022/06/06 01:19:37;;;;;;;4.90;2.40;;;20.60;59.10;;;;;;7370776;19;20038;-76
2022/06/06 01:22:26;;;;;;;7.18;2.47;;;20.60;59.10;;;;;;7368647;19;20386;-76
2022/06/06 01:25:16;;;;;;;4.80;2.67;;;20.60;59.30;;;;;;7365901;19;20019;-75
2022/06/06 01:27:56;;;;;;;4.70;2.38;;;20.50;59.30;;;;;;7368945;19;20074;-75
2022/06/06 01:30:34;;;;;;;8.07;2.28;;;20.40;59.50;;;;;;7369040;19;20018;-77
2022/06/06 01:33:05;;;;;;;7.90;2.83;;;20.40;59.80;;;;;;7369294;19;20082;-75
2022/06/06 01:35:40;;;;;;;3.70;2.22;;;20.30;59.70;;;;;;7374584;19;20018;-75
2022/06/06 01:38:11;;;;;;;7.35;2.40;;;20.30;59.90;;;;;;7374130;19;20078;-76
2022/06/06 01:40:48;;;;;;;8.57;4.30;;;20.30;59.90;;;;;;7396864;19;20014;-75
2022/06/06 01:43:22;;;;;;;3.92;2.10;;;20.40;59.70;;;;;;7373224;19;20572;-74
2022/06/06 01:45:59;;;;;;;5.10;2.22;;;20.30;59.90;;;;;;7374638;19;20010;-75
2022/06/06 01:48:35;;;;;;;9.48;2.65;;;20.40;60.00;;;;;;7373538;19;20620;-75
2022/06/06 01:51:12;;;;;;;9.80;2.72;;;20.30;59.70;;;;;;7375494;19;20011;-75
2022/06/06 01:53:43;;;;;;;5.75;2.75;;;20.30;59.70;;;;;;7372962;19;20014;-77
2022/06/06 01:56:17;;;;;;;3.70;2.28;;;20.30;59.90;;;;;;7376487;19;20017;-75
2022/06/06 01:58:47;;;;;;;8.57;2.78;;;20.40;59.70;;;;;;7394448;19;20031;-75
2022/06/06 02:01:21;;;;;;;3.42;2.40;;;20.40;59.70;;;;;;7373987;19;20026;-75
2022/06/06 02:03:51;;;;;;;9.45;2.58;;;20.30;60.50;;;;;;7373988;19;20015;-75
2022/06/06 02:06:20;;;;;;;6.95;2.20;;;20.20;59.90;;;;;;7375897;19;20025;-74
2022/06/06 02:08:51;;;;;;;7.03;2.50;;;20.20;60.00;;;;;;7374515;19;20015;-76
2022/06/06 02:11:22;;;;;;;5.75;2.47;;;20.20;60.20;;;;;;7372430;19;20469;-76
2022/06/06 02:13:51;;;;;;;3.00;2.70;;;20.20;60.30;;;;;;7394864;19;20024;-76
2022/06/06 02:16:25;;;;;;;5.68;2.40;;;20.20;60.20;;;;;;7374483;19;20689;-77
2022/06/06 02:18:55;;;;;;;5.57;2.33;;;20.20;60.00;;;;;;7375258;19;20047;-77
2022/06/06 02:21:25;;;;;;;6.15;2.55;;;20.10;59.90;;;;;;7375507;19;20021;-76
2022/06/06 02:23:54;;;;;;;3.95;2.10;;;20.10;60.10;;;;;;7376261;19;20026;-75
2022/06/06 02:26:23;;;;;;;6.50;2.47;;;20.10;60.10;;;;;;7370627;19;20018;-78
2022/06/06 02:28:52;;;;;;;5.10;2.40;;;20.10;59.90;;;;;;7395240;19;20014;-77
2022/06/06 02:31:24;;;;;;;4.40;2.47;;;20.00;59.80;;;;;;7375642;19;20025;-78
2022/06/06 02:33:52;;;;;;;3.55;2.50;;;19.90;60.00;;;;;;7372884;19;20031;-77
2022/06/06 02:36:21;;;;;;;7.13;2.42;;;19.90;60.10;;;;;;7374310;19;20015;-77
2022/06/06 02:38:50;;;;;;;4.93;2.30;;;19.90;60.00;;;;;;7375132;19;20041;-78
2022/06/06 02:41:19;;;;;;;5.88;2.60;;;19.90;60.00;;;;;;7372496;19;20026;-79
2022/06/06 02:43:48;;;;;;;5.57;2.47;;;19.90;59.90;;;;;;7396139;19;20102;-78
2022/06/06 02:46:17;;;;;;;8.23;2.20;;;19.90;59.70;;;;;;7372828;19;20014;-78
2022/06/06 02:48:48;;;;;;;7.63;2.58;;;19.80;60.00;;;;;;7373303;19;20019;-78
2022/06/06 02:51:16;;;;;;;;;;;19.80;59.90;;;;;;7376530;19;20528;-78
2022/06/06 02:53:45;;;;;;;6.07;2.72;;;19.80;60.10;;;;;;7374702;19;19939;-79
2022/06/06 02:56:14;;;;;;;4.05;2.45;;;19.80;59.80;;;;;;7375458;19;20446;-78
2022/06/06 02:58:46;;;;;;;3.65;2.42;;;19.80;59.90;;;;;;7394802;19;20450;-78
2022/06/06 03:01:15;;;;;;;3.80;2.20;;;19.70;60.50;;;;;;7371228;19;20014;-78
2022/06/06 03:03:44;;;;;;;6.57;2.15;;;19.70;60.00;;;;;;7372169;19;20365;-78
2022/06/06 03:06:30;;;;;;;3.13;2.05;;;19.60;61.10;;;;;;7374450;19;20022;-79
2022/06/06 03:09:07;;;;;;;3.15;2.00;;;19.60;60.30;;;;;;7372306;19;20091;-78
2022/06/06 03:12:00;;;;;;;6.25;2.33;;;19.60;59.90;;;;;;7374399;19;20044;-78
2022/06/06 03:14:56;;;;;;;5.85;2.28;;;19.60;59.90;;;;;;7375666;19;20477;-78
2022/06/06 03:20:50;;;;;;;6.03;2.50;;;19.50;59.70;;;;;;7372946;19;20015;-79
2022/06/06 03:24:14;;;;;;;5.65;2.00;;;19.50;59.70;;;;;;7373927;19;20012;-78
2022/06/06 03:26:53;;;;;;;6.18;2.35;;;19.50;59.70;;;;;;7372678;19;20011;-79
2022/06/06 03:29:38;;;;;;;6.80;2.13;;;19.50;59.30;;;;;;7369264;19;20054;-79
2022/06/06 03:32:17;;;;;;;2.10;1.90;;;19.40;59.30;;;;;;7369117;19;20026;-78
2022/06/06 03:34:53;;;;;;;6.30;2.30;;;19.40;59.30;;;;;;7393401;19;20026;-78
2022/06/06 03:37:30;;;;;;;8.32;2.67;;;19.30;59.70;;;;;;7371074;19;20035;-78
2022/06/06 03:40:10;;;;;;;3.38;2.15;;;19.30;59.70;;;;;;7370433;19;20045;-78
2022/06/06 03:42:48;;;;;;;7.50;2.28;;;19.20;59.40;;;;;;7369743;19;20014;-79
2022/06/06 03:45:24;;;;;;;3.53;2.30;;;19.20;59.40;;;;;;7371333;19;20011;-78
2022/06/06 03:48:03;;;;;;;4.07;2.20;;;19.10;59.40;;;;;;7369313;19;20026;-78
2022/06/06 03:50:54;;;;;;;6.15;2.10;;;19.10;59.50;;;;;;7370181;19;20635;-78
2022/06/06 03:53:29;;;;;;;4.28;2.10;;;19.10;59.40;;;;;;7371829;19;20023;-78
2022/06/06 03:56:11;;;;;;;6.97;1.88;;;19.00;59.40;;;;;;7383284;19;20085;-78
2022/06/06 03:58:42;;;;;;;6.30;2.10;;;19.00;59.50;;;;;;7393228;19;20483;-78
2022/06/06 04:01:14;;;;;;;7.38;2.15;;;19.00;59.40;;;;;;7372658;19;20345;-77
2022/06/06 04:03:46;;;;;;;7.35;2.20;;;19.00;59.60;;;;;;7373447;19;20014;-78
2022/06/06 04:06:16;;;;;;;8.55;2.10;;;19.00;59.60;;;;;;7373440;19;20015;-78
2022/06/06 04:08:45;;;;;;;3.95;1.85;;;19.00;60.00;;;;;;7372862;19;20034;-78
2022/06/06 04:11:34;;;;;;;5.05;2.17;;;18.90;59.70;;;;;;7373880;19;20019;-78
2022/06/06 04:14:19;;;;;;;5.80;2.55;;;18.90;59.80;;;;;;7373273;19;20022;-78
2022/06/06 04:16:57;;;;;;;8.32;2.40;;;18.90;60.00;;;;;;7392371;19;20102;-79
2022/06/06 04:19:34;;;;;;;5.10;2.40;;;19.00;60.00;;;;;;7373139;19;20021;-78
2022/06/06 04:22:13;;;;;;;5.90;2.38;;;19.10;59.80;;;;;;7373380;19;20023;-78
2022/06/06 04:25:00;;;;;;;4.22;2.22;;;19.10;59.60;;;;;;7377379;19;20080;-78
2022/06/06 04:27:41;;;;;;;5.28;2.47;;;19.20;59.60;;;;;;7373261;19;20355;-78
2022/06/06 04:30:19;;;;;;;4.43;2.60;;;19.30;59.60;;;;;;7372899;19;20014;-78
2022/06/06 04:32:59;;;;;;;5.45;2.83;;;19.30;59.40;;;;;;7371856;19;20460;-77
2022/06/06 04:35:33;;;;;;;9.10;4.43;;;19.30;59.40;;;;;;7372034;19;20064;-78
2022/06/06 04:38:10;;;;;;;7.55;4.78;;;19.30;59.70;;;;;;7371053;19;20460;-78
2022/06/06 04:40:48;;;;;;;7.13;3.90;;;19.30;59.90;;;;;;7394648;19;20027;-77
2022/06/06 04:43:27;;;;;;;8.80;4.35;;;19.30;60.00;;;;;;7374015;19;20032;-78
2022/06/06 04:46:03;;;;;;;10.93;4.00;;;19.30;60.20;;;;;;7374475;19;20019;-78
2022/06/06 04:48:34;;;;;;;5.80;3.33;;;19.30;60.20;;;;;;7372090;19;20086;-78
2022/06/06 04:51:03;;;;;;;4.45;3.05;;;19.40;59.90;;;;;;7371296;19;20015;-78
2022/06/06 04:53:34;;;;;;;7.88;3.17;;;19.30;59.80;;;;;;7370357;19;20097;-78
2022/06/06 04:56:04;;;;;;;6.13;3.95;;;19.30;60.00;;;;;;7369478;19;20018;-78
2022/06/06 04:58:37;;;;;;;11.35;4.28;;;19.40;60.00;;;;;;7392337;19;20655;-78
2022/06/06 05:01:07;;;;;;;7.63;4.60;;;19.40;60.20;;;;;;7371470;19;20010;-78
2022/06/06 05:03:36;;;;;;;10.15;4.65;;;19.40;60.20;;;;;;7373031;19;20449;-78
2022/06/06 05:06:17;;;;;;;6.55;4.00;;;19.40;60.60;;;;;;7371481;19;20018;-78
2022/06/06 05:09:00;;;;;;;11.38;4.55;;;19.40;60.50;;;;;;7374867;19;20039;-78
2022/06/06 05:11:43;;;;;;;8.55;4.20;;;19.40;60.40;;;;;;7379158;19;20085;-79
2022/06/06 05:14:37;;;;;;;11.07;4.63;;;19.50;60.40;;;;;;7379428;19;20716;-78
2022/06/06 05:17:36;;;;;;;13.13;4.43;;;19.40;60.50;;;;;;7378753;19;20023;-78
2022/06/06 05:20:17;;;;;;;13.38;4.63;;;19.40;60.60;;;;;;7380545;19;20018;-78
2022/06/06 05:23:22;;;;;;;13.15;4.55;;;19.40;60.90;;;;;;7399742;19;20449;-78
2022/06/06 05:26:04;;;;;;;8.88;4.15;;;19.50;60.90;;;;;;7377959;19;20018;-78
2022/06/06 05:28:39;;;;;;;;;;;19.50;60.90;;;;;;7380512;19;20011;-78
2022/06/06 05:31:29;;;;;;;10.93;4.10;;;19.60;61.10;;;;;;7385522;19;19931;-79
2022/06/06 05:34:19;;;;;;;10.68;4.28;;;19.60;61.00;;;;;;7380766;19;20023;-78
2022/06/06 05:37:15;;;;;;;6.25;3.97;;;19.60;61.30;;;;;;7384148;19;20011;-78
2022/06/06 05:39:58;;;;;;;5.80;2.90;;;19.60;61.40;;;;;;7379414;19;20018;-78
2022/06/06 05:42:37;;;;;;;5.28;2.90;;;19.60;61.10;;;;;;7379604;19;20035;-78
2022/06/06 05:45:16;;;;;;;6.18;2.28;;;19.60;61.00;;;;;;7380299;19;20017;-78
2022/06/06 05:47:59;;;;;;;3.40;1.98;;;19.70;60.80;;;;;;7386129;19;20015;-78
2022/06/06 05:50:38;;;;;;;5.05;2.10;;;19.70;60.60;;;;;;7386621;19;20517;-78
2022/06/06 05:53:33;;;;;;;5.70;2.30;;;19.70;60.70;;;;;;7386575;19;20035;-78
2022/06/06 05:56:29;;;;;;;5.93;1.75;;;19.80;60.60;;;;;;7384598;19;20741;-78
2022/06/06 05:59:15;;;;;;;3.78;1.45;;;19.80;59.50;;;;;;7397657;19;20300;-79
2022/06/06 06:02:00;;;;;;;3.30;1.42;;;19.50;59.70;;;;;;7406252;19;20801;-79
2022/06/06 06:04:47;;;;;;;6.40;1.45;;;19.60;60.00;;;;;;7386462;19;20006;-78
2022/06/06 06:07:27;;;;;;;7.47;1.45;;;19.60;59.70;;;;;;7385612;19;20018;-77
2022/06/06 06:10:07;;;;;;;4.30;1.40;;;19.70;59.80;;;;;;7384890;19;20085;-79
2022/06/06 06:13:07;;;;;;;1.23;0.90;;;19.70;59.90;;;;;;7384804;19;20025;-78
2022/06/06 06:15:39;;;;;;;5.43;1.10;;;19.80;59.50;;;;;;7384327;19;20015;-78
2022/06/06 06:18:12;;;;;;;3.88;1.38;;;19.80;59.10;;;;;;7383939;19;20035;-78
2022/06/06 06:20:48;;;;;;;2.67;1.50;;;19.70;59.30;;;;;;7382090;19;20027;-78
2022/06/06 06:23:21;;;;;;;6.63;1.30;;;19.60;59.10;;;;;;7380431;19;21458;-78
2022/06/06 06:25:51;;;;;;;5.65;1.45;;;19.50;59.80;;;;;;7400216;19;20044;-79
2022/06/06 06:28:20;;;;;;;3.33;1.40;;;19.40;60.20;;;;;;7375734;19;20018;-78
2022/06/06 06:31:03;;;;;;;3.78;1.17;;;19.30;60.00;;;;;;7376385;19;20086;-78
2022/06/06 06:33:57;;;;;;;3.00;1.30;;;19.30;60.60;;;;;;7375615;19;20190;-78
2022/06/06 06:36:43;;;;;;;4.03;1.40;;;19.40;60.30;;;;;;7377368;19;20018;-77
2022/06/06 06:39:37;;;;;;;4.03;1.50;;;19.30;59.70;;;;;;7376665;19;20032;-78
2022/06/06 06:42:21;;;;;;;3.47;1.25;;;19.20;61.50;;;;;;7375655;19;20020;-78
2022/06/06 06:44:55;;;;;;;3.08;1.23;;;19.40;60.90;;;;;;7372916;19;20026;-77
2022/06/06 06:47:31;;;;;;;2.22;1.13;;;19.50;60.80;;;;;;7376493;19;20089;-78
2022/06/06 06:50:09;;;;;;;1.70;1.13;;;19.60;60.10;;;;;;7376713;19;20098;-77
2022/06/06 06:52:53;;;;;;;4.03;1.55;;;19.80;60.00;;;;;;7398197;19;20326;-77
2022/06/06 06:55:34;;;;;;;3.38;1.17;;;19.80;59.80;;;;;;7376284;19;20052;-78
2022/06/06 06:58:17;;;;;;;1.77;1.17;;;19.80;60.00;;;;;;7375215;19;20018;-77
2022/06/06 07:00:52;;;;;;;2.92;1.27;;;19.80;60.10;;;;;;7373455;19;20023;-78
2022/06/06 07:09:20;;;;;;;5.72;1.42;;;19.60;59.60;;;;;;7374529;19;20035;-78
2022/06/06 07:12:07;;;;;;;4.82;1.23;;;19.50;60.20;;;;;;7373767;19;20015;-79
2022/06/06 07:14:55;;;;;;;1.70;1.33;;;19.50;60.40;;;;;;7372233;19;20113;-79
2022/06/06 07:17:25;;;;;;;7.00;1.23;;;19.70;60.40;;;;;;7375315;19;20599;-79
2022/06/06 07:20:02;;;;;;;3.83;1.40;;;19.70;59.70;;;;;;7392281;19;20019;-79
2022/06/06 07:22:59;;;;;;;6.65;1.50;;;19.70;59.90;;;;;;7375000;19;20444;-78
2022/06/06 07:25:27;;;;;;;3.13;1.20;;;19.70;59.80;;;;;;7374230;19;20023;-78
2022/06/06 07:27:56;;;;;;;1.40;1.00;;;19.70;59.70;;;;;;7374183;19;20091;-78
2022/06/06 07:30:26;;;;;;;3.75;1.60;;;19.70;59.90;;;;;;7373019;19;20014;-78
2022/06/06 07:33:07;;;;;;;5.75;1.30;;;19.60;59.60;;;;;;7371321;19;20020;-78
2022/06/06 07:35:43;;;;;;;3.15;1.40;;;19.70;59.40;;;;;;7371552;19;20604;-78
2022/06/06 07:38:33;;;;;;;3.50;1.20;;;19.50;59.50;;;;;;7375738;19;20094;-79
2022/06/06 07:41:18;;;;;;;2.90;1.40;;;19.50;59.30;;;;;;7374362;19;20019;-79
2022/06/06 07:44:02;;;;;;;4.40;1.30;;;19.70;59.60;;;;;;7397952;19;20090;-78
2022/06/06 07:46:43;;;;;;;7.13;1.42;;;19.60;59.60;;;;;;7373065;19;20014;-78
2022/06/06 07:49:21;;;;;;;3.50;1.30;;;19.80;59.70;;;;;;7372771;19;20020;-78
2022/06/06 07:52:01;;;;;;;2.83;1.40;;;20.00;58.70;;;;;;7372406;19;20022;-78
2022/06/06 07:54:47;;;;;;;2.55;1.10;;;20.10;58.50;;;;;;7372966;19;20085;-79
2022/06/06 07:57:27;;;;;;;6.15;1.27;;;20.10;57.90;;;;;;7373583;19;20014;-79
2022/06/06 08:00:03;;;;;;;2.22;1.25;;;20.10;57.60;;;;;;7371673;19;20018;-77
2022/06/06 08:02:51;;;;;;;2.40;0.98;;;20.10;57.60;;;;;;7374565;19;20073;-77
2022/06/06 08:05:43;;;;;;;4.80;1.20;;;19.90;57.00;;;;;;7372748;19;20014;-77
2022/06/06 08:08:22;;;;;;;5.80;1.00;;;20.00;56.40;;;;;;7374739;19;20018;-77
2022/06/06 08:10:51;;;;;;;1.65;0.82;;;20.20;56.30;;;;;;7391323;19;20022;-77
2022/06/06 08:13:32;;;;;;;4.30;1.23;;;20.10;56.40;;;;;;7371321;19;20014;-77
2022/06/06 08:16:16;;;;;;;1.80;0.93;;;20.10;56.30;;;;;;7370668;19;20470;-77
2022/06/06 08:19:22;;;;;;;3.17;1.00;;;20.00;56.70;;;;;;7370895;19;20093;-78
2022/06/06 08:21:52;;;;;;;10.75;0.90;;;20.20;56.40;;;;;;7374003;19;20007;-77
2022/06/06 08:24:26;;;;;;;2.17;0.82;;;20.30;55.90;;;;;;7372167;19;20038;-77
2022/06/06 08:26:57;;;;;;;2.83;0.85;;;20.30;56.30;;;;;;7374086;19;20014;-79
2022/06/06 08:29:29;;;;;;;1.27;1.02;;;20.40;55.60;;;;;;7373153;19;20068;-78
2022/06/06 08:31:58;;;;;;;2.15;0.80;;;20.40;54.50;;;;;;7387117;19;20090;-78
2022/06/06 08:34:26;;;;;;;6.18;0.85;;;20.40;54.30;;;;;;7400691;19;20022;-78
2022/06/06 08:37:19;;;;;;;2.17;0.75;;;20.30;54.00;;;;;;7378443;19;20022;-78
2022/06/06 08:39:57;;;;;;;4.15;0.82;;;20.30;54.90;;;;;;7372661;19;20070;-77
2022/06/06 08:42:42;;;;;;;1.38;0.55;;;20.40;54.40;;;;;;7365482;19;20018;-78
2022/06/06 08:45:49;;;;;;;2.45;0.60;;;20.60;54.20;;;;;;7371851;19;20010;-79
2022/06/06 08:48:39;;;;;;;3.63;0.80;;;20.70;53.50;;;;;;7370455;19;20027;-78
2022/06/06 08:51:25;;;;;;;3.35;0.90;;;20.70;53.70;;;;;;7372263;19;20043;-79
2022/06/06 08:54:32;;;;;;;3.58;0.70;;;20.70;53.70;;;;;;7371964;19;20074;-78
2022/06/06 08:57:35;;;;;;;4.15;0.90;;;20.90;53.40;;;;;;7371211;19;20007;-78
2022/06/06 09:00:20;;;;;;;2.92;0.63;;;21.00;53.10;;;;;;7368748;19;20106;-77
2022/06/06 09:03:31;;;;;;;0.68;0.60;;;21.10;52.10;;;;;;7369503;19;20011;-76
2022/06/06 09:06:37;;;;;;;3.05;0.90;;;21.00;51.70;;;;;;7364463;19;20045;-77
2022/06/06 09:09:33;;;;;;;0.70;0.50;;;21.10;52.20;;;;;;7366713;19;20047;-77
2022/06/06 09:12:38;;;;;;;3.28;0.68;;;21.00;52.00;;;;;;7369324;19;20015;-77
2022/06/06 09:15:37;;;;;;;2.63;0.52;;;20.90;51.60;;;;;;7367860;19;20011;-77
2022/06/06 09:18:48;;;;;;;3.25;0.75;;;21.00;52.10;;;;;;7368522;19;20526;-78
2022/06/06 09:21:48;;;;;;;2.47;0.70;;;20.90;51.50;;;;;;7369319;19;20133;-77
2022/06/06 09:24:48;;;;;;;1.90;0.70;;;21.00;51.70;;;;;;7367190;19;20028;-79
2022/06/06 09:27:49;;;;;;;1.05;0.60;;;21.10;51.00;;;;;;7367275;19;20030;-76
2022/06/06 09:30:31;;;;;;;4.68;1.27;;;21.20;50.50;;;;;;7368709;19;20458;-75
2022/06/06 09:33:42;;;;;;;32.08;19.00;;;21.00;51.20;;;;;;7366873;19;20015;-77
2022/06/06 09:36:26;;;;;;;3.60;1.00;;;20.80;50.90;;;;;;7368035;19;20054;-77
2022/06/06 09:39:13;;;;;;;1.63;0.77;;;21.10;50.50;;;;;;7368641;19;20565;-77
2022/06/06 09:41:48;;;;;;;3.70;0.60;;;21.30;50.70;;;;;;7364133;19;20324;-77
2022/06/06 09:44:38;;;;;;;3.20;0.80;;;21.30;50.20;;;;;;7365381;19;21651;-77
2022/06/06 09:47:40;;;;;;;1.95;0.77;;;21.50;50.10;;;;;;7366268;19;20090;-78
2022/06/06 09:50:31;;;;;;;3.65;0.50;;;21.60;49.70;;;;;;7367382;19;20015;-77
2022/06/06 09:53:40;;;;;;;1.80;0.60;;;21.60;50.10;;;;;;7365980;19;20086;-77
2022/06/06 09:59:58;;;;;;;0.60;0.50;;;21.70;49.50;;;;;;7373342;19;20095;-77
2022/06/06 10:02:57;;;;;;;3.13;0.68;;;21.80;49.00;;;;;;7371688;19;20019;-77
2022/06/06 10:06:07;;;;;;;2.13;0.50;;;21.70;49.50;;;;;;7373305;19;20062;-76
2022/06/06 10:09:10;;;;;;;1.05;0.40;;;21.70;49.30;;;;;;7374438;19;20065;-76
2022/06/06 10:12:03;;;;;;;8.23;0.60;;;21.80;49.10;;;;;;7372215;19;20048;-76
2022/06/06 10:14:51;;;;;;;2.05;0.57;;;21.80;48.30;;;;;;7371722;19;20018;-76
2022/06/06 10:17:49;;;;;;;1.17;0.50;;;21.80;47.70;;;;;;7370402;19;20022;-75
2022/06/06 10:20:24;;;;;;;1.88;0.60;;;21.80;47.60;;;;;;7371365;19;20008;-76
2022/06/06 10:23:27;;;;;;;1.70;0.60;;;21.90;48.50;;;;;;7394553;19;20055;-75
2022/06/06 10:26:15;;;;;;;0.82;0.40;;;22.00;48.00;;;;;;7271726;19;2004586;-75
2022/06/06 10:28:59;;;;;;;1.80;0.40;;;21.70;48.50;;;;;;7392756;19;20022;-76
2022/06/06 10:31:45;;;;;;;3.80;0.73;;;21.90;48.10;;;;;;7374031;19;20022;-76
2022/06/06 10:34:33;;;;;;;1.80;0.60;;;21.80;47.50;;;;;;7371376;19;20011;-76
2022/06/06 10:37:37;;;;;;;2.65;0.50;;;21.80;48.50;;;;;;7372321;19;20022;-75
2022/06/06 10:40:32;;;;;;;0.93;0.40;;;22.00;48.20;;;;;;7372999;19;20037;-76
2022/06/06 10:43:43;;;;;;;2.17;0.50;;;22.00;47.80;;;;;;7371581;19;20594;-76
2022/06/06 10:46:20;;;;;;;5.28;0.93;;;22.10;47.00;;;;;;7369826;19;20101;-76
2022/06/06 10:49:21;;;;;;;1.00;0.70;;;22.10;47.70;;;;;;7372387;19;20026;-76
2022/06/06 10:52:32;;;;;;;2.40;1.10;;;22.30;48.30;;;;;;7371726;19;20098;-76
2022/06/06 10:55:26;;;;;;;4.22;0.85;;;22.30;47.30;;;;;;7368958;19;20308;-76
2022/06/06 10:58:28;;;;;;;1.38;0.52;;;22.30;47.50;;;;;;7372603;19;20524;-76
2022/06/06 11:01:35;;;;;;;2.60;0.80;;;22.40;46.50;;;;;;7369295;19;20010;-76
2022/06/06 11:04:51;;;;;;;1.92;0.50;;;22.30;47.70;;;;;;7370269;19;20333;-76
2022/06/06 11:07:48;;;;;;;0.90;0.40;;;22.10;47.60;;;;;;7370298;19;20020;-76
2022/06/06 11:10:36;;;;;;;2.53;1.48;;;22.20;47.30;;;;;;7371176;19;20022;-76
2022/06/06 11:13:19;;;;;;;3.35;0.50;;;22.10;47.80;;;;;;7371700;19;20086;-77
2022/06/06 11:16:09;;;;;;;0.30;0.30;;;22.00;47.40;;;;;;7369945;19;20042;-77
2022/06/06 11:19:12;;;;;;;4.80;2.30;;;21.90;48.00;;;;;;7372835;19;20021;-77
2022/06/06 11:22:17;;;;;;;0.95;0.75;;;22.00;48.50;;;;;;7374549;19;20006;-76
2022/06/06 11:24:55;;;;;;;2.05;0.73;;;22.20;48.30;;;;;;7369801;19;20066;-77
2022/06/06 11:28:14;;;;;;;2.08;0.50;;;22.30;48.30;;;;;;7372765;19;20110;-82
2022/06/06 11:31:15;;;;;;;90.65;59.65;;;22.40;47.30;;;;;;7370022;19;20010;-77
2022/06/06 11:34:27;;;;;;;5.75;1.30;;;22.50;47.70;;;;;;7372400;19;20032;-77
2022/06/06 11:37:44;;;;;;;4.15;1.25;;;22.60;46.50;;;;;;7369909;19;20570;-76
2022/06/06 11:40:48;;;;;;;4.20;3.17;;;22.60;46.90;;;;;;7370172;19;20015;-76
2022/06/06 11:43:50;;;;;;;1.88;0.80;;;22.70;47.00;;;;;;7374124;19;20039;-75
2022/06/06 11:46:39;;;;;;;;;;;22.80;46.30;;;;;;7373336;19;20018;-76
2022/06/06 11:49:43;;;;;;;7.75;4.65;;;22.90;46.50;;;;;;7371081;19;19919;-76
2022/06/06 11:52:42;;;;;;;3.05;2.03;;;22.80;46.80;;;;;;7370308;19;20019;-76
2022/06/06 11:55:39;;;;;;;1.25;0.55;;;22.60;47.00;;;;;;7368645;19;20021;-76
2022/06/06 11:58:42;;;;;;;4.50;0.50;;;22.50;46.20;;;;;;7368404;19;20046;-76
2022/06/06 12:01:37;;;;;;;2.83;0.90;;;22.50;46.90;;;;;;7370859;19;20419;-77
2022/06/06 12:04:25;;;;;;;3.15;0.60;;;22.50;47.00;;;;;;7372709;19;20030;-76
2022/06/06 12:07:35;;;;;;;1.00;0.47;;;22.40;47.00;;;;;;7370740;19;20035;-79
2022/06/06 12:10:16;;;;;;;2.28;0.60;;;22.60;47.90;;;;;;7371728;19;20030;-78
2022/06/06 12:13:12;;;;;;;1.30;0.40;;;22.60;46.10;;;;;;7370905;19;20011;-77
2022/06/06 12:16:05;;;;;;;1.48;0.60;;;22.80;45.20;;;;;;7371939;19;20086;-78
2022/06/06 12:18:52;;;;;;;1.88;0.60;;;22.90;45.80;;;;;;7372460;19;20019;-78
2022/06/06 12:21:43;;;;;;;2.88;0.40;;;23.00;45.10;;;;;;7371917;19;20661;-78
2022/06/06 12:24:44;;;;;;;1.55;0.50;;;23.10;43.10;;;;;;7371516;19;20018;-78
2022/06/06 12:27:26;;;;;;;2.22;0.47;;;23.30;43.60;;;;;;7368064;19;20027;-79
2022/06/06 12:30:10;;;;;;;1.38;0.40;;;23.50;43.60;;;;;;7371264;19;20010;-78
2022/06/06 12:32:52;;;;;;;1.95;1.02;;;23.70;43.40;;;;;;7374034;19;20018;-78
2022/06/06 12:35:29;;;;;;;1.60;0.52;;;23.90;44.00;;;;;;7369241;19;20102;-78
2022/06/06 12:38:13;;;;;;;3.00;0.75;;;24.00;42.90;;;;;;7384003;19;20034;-79
2022/06/06 12:40:55;;;;;;;1.63;0.50;;;24.20;42.80;;;;;;7393944;19;20018;-79
2022/06/06 12:43:38;;;;;;;1.23;0.32;;;24.30;41.70;;;;;;7370530;19;20093;-77
2022/06/06 12:46:25;;;;;;;1.55;0.60;;;24.40;41.20;;;;;;7370908;19;20018;-76
2022/06/06 12:49:24;;;;;;;3.40;0.60;;;24.30;42.20;;;;;;7370976;19;20042;-78
2022/06/06 12:52:08;;;;;;;3.60;0.90;;;24.10;42.30;;;;;;7375844;19;20047;-79
2022/06/06 12:57:48;;;;;;;3.97;0.52;;;24.00;41.60;;;;;;7368018;19;20007;-80
2022/06/06 13:01:37;;;;;;;0.85;0.40;;;24.00;41.20;;;;;;7371356;19;20025;-77
2022/06/06 13:03:21;;;;;;;1.15;0.60;;;23.90;41.30;;;;;;7369188;19;20018;-75
2022/06/06 13:05:59;;;;;;;49.72;31.63;;;23.90;41.40;;;;;;7372086;19;20023;-77
2022/06/06 13:08:54;;;;;;;2.63;1.00;;;23.90;42.20;;;;;;7367838;19;20136;-78
2022/06/06 13:11:46;;;;;;;2.63;0.80;;;23.60;41.40;;;;;;7364141;19;20044;-77
2022/06/06 13:14:43;;;;;;;1.65;0.40;;;23.50;42.50;;;;;;7370027;19;20094;-77
2022/06/06 13:17:23;;;;;;;1.48;0.60;;;23.50;42.60;;;;;;7370677;19;20660;-78
2022/06/06 13:20:07;;;;;;;3.80;1.02;;;23.60;43.70;;;;;;7392344;19;20019;-77
2022/06/06 13:22:48;;;;;;;0.95;0.50;;;23.70;43.40;;;;;;7369146;19;20656;-77
2022/06/06 13:25:26;;;;;;;2.47;0.43;;;23.70;42.90;;;;;;7368429;19;20017;-78
2022/06/06 13:28:01;;;;;;;1.73;0.50;;;23.80;43.40;;;;;;7370027;19;20411;-77
2022/06/06 13:30:37;;;;;;;2.00;0.90;;;24.00;43.40;;;;;;7375825;19;20017;-77
2022/06/06 13:33:20;;;;;;;3.28;0.50;;;24.10;42.90;;;;;;7376861;19;20036;-77
2022/06/06 13:36:04;;;;;;;1.98;0.40;;;24.10;41.10;;;;;;7376092;19;20015;-77
2022/06/06 13:38:51;;;;;;;2.85;0.60;;;24.20;41.60;;;;;;7375740;19;20019;-78
2022/06/06 13:41:33;;;;;;;1.98;0.50;;;24.30;41.30;;;;;;7376801;19;20438;-78
2022/06/06 13:44:08;;;;;;;1.92;0.40;;;24.40;41.00;;;;;;7371815;19;20127;-77
2022/06/06 13:47:03;;;;;;;2.05;0.50;;;24.40;40.70;;;;;;7399503;19;20371;-77
2022/06/06 13:50:09;;;;;;;1.05;0.40;;;24.40;41.50;;;;;;7377303;19;20011;-77
2022/06/06 13:52:59;;;;;;;2.45;0.43;;;24.50;40.80;;;;;;7374950;19;20010;-77
2022/06/06 13:55:31;;;;;;;3.45;0.50;;;24.70;40.40;;;;;;7376025;19;20495;-78
2022/06/06 13:58:29;;;;;;;4.75;0.40;;;24.80;39.40;;;;;;7377562;19;20024;-77
2022/06/06 14:01:09;;;;;;;3.63;0.52;;;24.70;39.10;;;;;;7377044;19;20023;-78
2022/06/06 14:03:55;;;;;;;1.80;0.50;;;24.70;40.40;;;;;;7376226;19;20022;-77
2022/06/06 14:06:43;;;;;;;2.58;0.60;;;24.60;40.90;;;;;;7377226;19;20010;-77
2022/06/06 14:09:17;;;;;;;1.23;0.60;;;24.60;41.40;;;;;;7375043;19;20394;-79
2022/06/06 14:12:07;;;;;;;1.13;0.50;;;24.60;41.70;;;;;;7375760;19;20042;-78
2022/06/06 14:14:39;;;;;;;1.67;0.70;;;24.60;43.00;;;;;;7375720;19;20035;-77
2022/06/06 14:17:11;;;;;;;2.35;0.73;;;24.60;42.40;;;;;;7375883;19;20018;-78
2022/06/06 14:19:56;;;;;;;2.28;0.80;;;24.70;42.20;;;;;;7395604;19;20018;-78
2022/06/06 14:22:33;;;;;;;1.23;0.50;;;24.80;41.80;;;;;;7377377;19;20011;-77
2022/06/06 14:25:06;;;;;;;1.02;0.45;;;24.80;41.90;;;;;;7377419;19;20626;-79
2022/06/06 14:27:35;;;;;;;3.50;0.70;;;24.90;42.00;;;;;;7373988;19;20022;-78